createdAt,value
2018-12-14T00:02:13.342Z,6.23
2018-12-14T00:04:42.169Z,5.57
2018-12-14T00:07:10.594Z,6.07
2018-12-14T00:09:39.050Z,5.70
2018-12-14T00:12:07.737Z,6.03
2018-12-14T00:14:36.230Z,5.80
2018-12-14T00:17:05.465Z,5.70
2018-12-14T00:19:34.333Z,6.30
2018-12-14T00:22:03.142Z,5.77
2018-12-14T00:24:31.865Z,5.63
2018-12-14T00:27:01.046Z,6.07
2018-12-14T00:29:29.445Z,6.33
2018-12-14T00:31:58.241Z,6.10
2018-12-14T00:34:26.636Z,7.63
2018-12-14T00:36:55.089Z,6.63
2018-12-14T00:39:23.530Z,6.70
2018-12-14T00:41:52.283Z,5.87
2018-12-14T00:44:21.145Z,7.40
2018-12-14T00:46:50.005Z,6.40
2018-12-14T00:49:18.405Z,6.97
2018-12-14T00:51:48.810Z,6.80
2018-12-14T00:54:17.269Z,6.77
2018-12-14T00:56:46.165Z,6.70
2018-12-14T00:59:15.283Z,7.20
2018-12-14T01:01:44.105Z,6.77
2018-12-14T01:04:12.856Z,6.97
2018-12-14T01:06:41.373Z,6.47
2018-12-14T01:09:09.821Z,7.43
2018-12-14T01:11:38.288Z,7.20
2018-12-14T01:14:07.409Z,7.00
2018-12-14T01:16:36.340Z,6.70
2018-12-14T01:19:06.017Z,6.90
2018-12-14T01:21:34.422Z,7.10
2018-12-14T01:24:03.344Z,7.93
2018-12-14T01:26:32.105Z,7.47
2018-12-14T01:29:01.394Z,7.30
2018-12-14T01:31:30.098Z,8.03
2018-12-14T01:33:59.061Z,7.07
2018-12-14T01:36:27.853Z,7.03
2018-12-14T01:38:56.787Z,7.37
2018-12-14T01:41:25.530Z,7.13
2018-12-14T01:43:54.355Z,6.77
2018-12-14T01:46:23.046Z,7.07
2018-12-14T01:48:51.838Z,7.77
2018-12-14T01:51:21.366Z,8.40
2018-12-14T01:53:50.019Z,7.67
2018-12-14T01:56:19.157Z,7.93
2018-12-14T01:58:48.290Z,7.23
2018-12-14T02:01:17.050Z,7.83
2018-12-14T02:03:45.877Z,8.13
2018-12-14T02:06:14.765Z,8.07
2018-12-14T02:08:43.881Z,8.23
2018-12-14T02:11:12.749Z,8.33
2018-12-14T02:13:41.517Z,8.67
2018-12-14T02:16:10.337Z,8.63
2018-12-14T02:18:39.285Z,8.13
2018-12-14T02:21:08.109Z,7.63
2018-12-14T02:23:37.211Z,8.33
2018-12-14T02:26:05.625Z,8.63
2018-12-14T02:28:34.366Z,8.50
2018-12-14T02:31:03.407Z,8.30
2018-12-14T02:33:33.070Z,7.90
2018-12-14T02:36:01.825Z,8.30
2018-12-14T02:38:30.954Z,8.93
2018-12-14T02:40:59.814Z,8.13
2018-12-14T02:43:28.334Z,8.50
2018-12-14T02:45:56.794Z,8.40
2018-12-14T02:48:25.903Z,8.83
2018-12-14T02:50:54.332Z,8.03
2018-12-14T02:53:22.769Z,8.23
2018-12-14T02:55:52.069Z,8.70
2018-12-14T02:58:20.842Z,9.13
2018-12-14T03:00:49.609Z,8.23
2018-12-14T03:03:18.378Z,8.60
2018-12-14T03:05:47.198Z,8.10
2018-12-14T03:08:15.988Z,8.03
2018-12-14T03:10:44.883Z,8.73
2018-12-14T03:13:13.622Z,9.50
2018-12-14T03:15:42.291Z,8.70
2018-12-14T03:18:10.998Z,8.77
2018-12-14T03:20:39.825Z,8.60
2018-12-14T03:23:08.621Z,9.83
2018-12-14T03:25:37.564Z,9.17
2018-12-14T03:28:05.997Z,9.40
2018-12-14T03:30:34.454Z,9.07
2018-12-14T03:33:03.367Z,8.50
2018-12-14T03:35:32.134Z,8.80
2018-12-14T03:38:01.152Z,8.97
2018-12-14T03:40:30.103Z,9.47
2018-12-14T03:42:58.921Z,9.60
2018-12-14T03:45:28.123Z,8.43
2018-12-14T03:47:57.009Z,8.60
2018-12-14T03:50:25.937Z,9.43
2018-12-14T03:52:54.681Z,9.57
2018-12-14T03:55:23.374Z,9.07
2018-12-14T03:57:53.104Z,8.73
2018-12-14T04:00:22.258Z,8.57
2018-12-14T04:02:51.687Z,8.20
2018-12-14T04:05:20.674Z,8.30
2018-12-14T04:07:49.386Z,8.07
2018-12-14T04:10:18.039Z,8.00
2018-12-14T04:12:46.813Z,7.47
2018-12-14T04:15:15.710Z,7.37
2018-12-14T04:17:44.402Z,7.50
2018-12-14T04:20:13.148Z,7.37
2018-12-14T04:22:41.567Z,6.93
2018-12-14T04:25:10.222Z,6.70
2018-12-14T04:27:39.345Z,7.20
2018-12-14T04:30:07.874Z,6.77
2018-12-14T04:32:36.784Z,6.60
2018-12-14T04:35:06.676Z,6.67
2018-12-14T04:37:35.904Z,6.10
2018-12-14T04:40:05.686Z,6.40
2018-12-14T04:42:34.406Z,6.13
2018-12-14T04:45:02.934Z,6.63
2018-12-14T04:47:31.385Z,6.40
2018-12-14T04:49:59.912Z,6.40
2018-12-14T04:52:28.516Z,6.07
2018-12-14T04:54:56.966Z,5.60
2018-12-14T04:57:25.838Z,5.80
2018-12-14T04:59:54.248Z,5.60
2018-12-14T05:02:22.710Z,5.77
2018-12-14T05:04:51.426Z,5.40
2018-12-14T05:07:20.102Z,5.70
2018-12-14T05:09:48.937Z,5.77
2018-12-14T05:12:17.754Z,5.70
2018-12-14T05:14:46.874Z,6.10
2018-12-14T05:17:16.576Z,6.77
2018-12-14T05:19:45.365Z,6.00
2018-12-14T17:42:28.738Z,14.20
2018-12-14T17:45:03.201Z,13.37
2018-12-14T17:47:34.064Z,15.20
2018-12-14T17:50:03.392Z,14.57
2018-12-14T17:52:36.710Z,15.70
2018-12-14T17:55:06.326Z,14.80
2018-12-14T17:57:34.891Z,15.00
2018-12-14T18:00:05.710Z,15.17
2018-12-14T18:02:38.320Z,14.57
2018-12-14T18:05:07.334Z,14.80
2018-12-14T18:07:36.955Z,15.70
2018-12-14T18:10:06.059Z,15.37
2018-12-14T18:12:38.999Z,15.87
2018-12-14T18:15:07.559Z,15.90
2018-12-14T18:17:37.630Z,15.47
2018-12-14T18:20:07.598Z,14.83
2018-12-14T18:22:37.518Z,16.57
2018-12-14T18:25:07.935Z,17.43
2018-12-14T18:27:36.934Z,16.87
2018-12-14T18:30:07.189Z,17.70
2018-12-14T18:32:36.730Z,17.90
2018-12-14T18:35:07.220Z,17.37
2018-12-14T18:37:41.475Z,18.23
2018-12-14T18:40:14.214Z,17.87
2018-12-14T18:42:42.873Z,18.37
2018-12-14T18:45:11.530Z,20.23
2018-12-14T18:47:41.853Z,20.50
2018-12-14T18:50:11.768Z,18.57
2018-12-14T18:52:44.022Z,19.80
2018-12-14T18:55:16.719Z,19.63
2018-12-14T18:57:45.624Z,20.17
2018-12-14T19:00:19.466Z,20.30
2018-12-14T19:02:49.363Z,21.07
2018-12-14T19:05:22.446Z,20.87
2018-12-14T19:07:52.056Z,22.47
2018-12-14T19:10:22.072Z,21.10
2018-12-14T19:12:51.534Z,21.50
2018-12-14T19:15:24.399Z,21.30
2018-12-14T19:17:54.055Z,22.13
2018-12-14T19:20:23.930Z,22.30
2018-12-14T19:22:53.319Z,21.67
2018-12-14T19:25:30.604Z,21.73
2018-12-14T19:28:02.931Z,21.73
2018-12-14T19:30:32.470Z,22.20
2018-12-14T19:33:02.785Z,21.27
2018-12-14T19:35:31.408Z,22.13
2018-12-14T19:38:01.791Z,22.67
2018-12-14T19:40:30.465Z,22.90
2018-12-14T19:42:59.102Z,23.83
2018-12-14T19:45:28.843Z,22.80
2018-12-14T19:48:05.643Z,23.57
2018-12-14T19:50:37.212Z,22.97
2018-12-14T19:53:09.876Z,24.07
2018-12-14T19:55:44.344Z,23.63
2018-12-14T19:58:16.241Z,23.00
2018-12-14T20:00:49.220Z,22.87
2018-12-14T20:03:18.180Z,22.43
2018-12-14T20:05:46.819Z,22.57
2018-12-14T20:08:15.420Z,22.13
2018-12-14T20:10:44.099Z,21.30
2018-12-14T20:13:13.484Z,22.00
2018-12-14T20:15:42.456Z,21.80
2018-12-14T20:18:13.513Z,22.97
2018-12-14T20:20:43.178Z,21.13
2018-12-14T20:23:12.725Z,21.60
2018-12-14T20:25:41.602Z,21.27
2018-12-14T20:28:10.231Z,22.77
2018-12-14T20:30:39.038Z,21.23
2018-12-14T20:33:08.197Z,22.13
2018-12-14T20:35:37.544Z,21.93
2018-12-14T20:38:07.412Z,22.20
2018-12-14T20:40:36.581Z,20.17
2018-12-14T20:43:10.194Z,22.33
2018-12-14T20:45:39.288Z,21.57
2018-12-14T20:48:09.323Z,22.27
2018-12-14T20:50:43.833Z,21.43
2018-12-14T20:53:17.701Z,21.87
2018-12-14T20:55:48.919Z,21.00
2018-12-14T20:58:19.019Z,21.40
2018-12-14T21:00:48.589Z,21.73
2018-12-14T21:03:17.856Z,22.57
2018-12-14T21:05:47.305Z,20.90
2018-12-14T21:08:17.283Z,22.57
2018-12-14T21:10:52.366Z,21.27
2018-12-14T21:13:25.093Z,22.20
2018-12-14T21:15:55.393Z,20.53
2018-12-14T21:18:29.679Z,20.97
2018-12-14T21:21:00.689Z,21.63
2018-12-14T21:23:31.074Z,20.97
2018-12-14T21:25:59.872Z,20.63
2018-12-14T21:28:28.560Z,21.47
2018-12-14T21:30:57.226Z,20.60
2018-12-14T21:33:27.446Z,26.87
2018-12-14T21:35:56.196Z,20.83
2018-12-14T21:38:24.896Z,19.97
2018-12-14T21:40:53.642Z,19.60
2018-12-14T21:43:23.584Z,20.30
2018-12-14T21:45:58.325Z,20.00
2018-12-14T21:48:32.716Z,19.53
2018-12-14T21:51:02.151Z,20.40
2018-12-14T21:53:31.144Z,20.47
2018-12-14T21:56:00.610Z,20.93
2018-12-14T21:58:29.917Z,20.47
2018-12-14T22:00:59.670Z,19.93
2018-12-14T22:03:29.597Z,19.20
2018-12-14T22:05:59.233Z,18.80
2018-12-14T22:08:28.574Z,19.17
2018-12-14T22:10:57.479Z,18.93
2018-12-14T22:13:26.340Z,19.43
2018-12-14T22:15:56.160Z,18.80
2018-12-14T22:18:26.828Z,18.50
2018-12-14T22:20:57.302Z,20.80
2018-12-14T22:23:26.749Z,18.73
2018-12-14T22:25:57.061Z,18.20
2018-12-14T22:28:25.896Z,17.97
2018-12-14T22:30:55.088Z,17.57
2018-12-14T22:33:30.106Z,17.43
2018-12-14T22:36:06.837Z,18.27
2018-12-14T22:38:40.798Z,17.67
2018-12-14T22:41:12.934Z,18.33
2018-12-14T22:43:41.813Z,17.73
2018-12-14T22:46:10.701Z,18.40
2018-12-14T22:48:40.110Z,16.83
2018-12-14T22:51:09.474Z,15.93
2018-12-14T22:53:39.595Z,17.70
2018-12-14T22:56:09.176Z,19.07
2018-12-14T22:58:38.145Z,17.93
2018-12-14T23:01:07.667Z,16.60
2018-12-14T23:03:37.434Z,17.20
2018-12-14T23:06:07.835Z,17.10
2018-12-14T23:08:39.328Z,17.27
2018-12-14T23:11:07.961Z,17.57
2018-12-14T23:13:37.366Z,16.40
2018-12-14T23:16:07.019Z,16.43
2018-12-14T23:18:36.900Z,16.23
2018-12-14T23:21:06.058Z,15.10
2018-12-14T23:23:35.650Z,16.20
2018-12-14T23:26:04.884Z,16.53
2018-12-14T23:28:36.329Z,15.47
2018-12-14T23:31:07.352Z,16.30
2018-12-14T23:33:36.194Z,15.90
2018-12-14T23:36:05.920Z,15.27
2018-12-14T23:38:34.772Z,15.37
2018-12-14T23:41:05.340Z,16.47
2018-12-14T23:43:35.591Z,22.47
2018-12-14T23:46:06.737Z,15.60
2018-12-14T23:48:38.232Z,14.47
2018-12-14T23:51:07.189Z,14.73
2018-12-14T23:53:36.607Z,16.07
2018-12-14T23:56:06.770Z,14.37
2018-12-14T23:58:35.696Z,14.07
